Time;durP1;ratioP1;P1;durP2;ratioP2;P2;SDS_P1;SDS_P2;PMS_P1;PMS_P2;Temp;Humidity;BMP_temperature;BMP_pressure;BME280_temperature;BME280_humidity;BME280_pressure;Samples;Min_cycle;Max_cycle;Signal;HPM_P1;HPM_P2
2021/08/12 00:02:48;;;;;;;8.00;3.97;;;27.40;52.30;;;;;;6209565;28;20042;-76
2021/08/12 00:05:49;;;;;;;6.57;3.40;;;27.60;52.60;;;;;;6202266;28;20075;-75
2021/08/12 00:08:50;;;;;;;9.32;4.03;;;27.50;52.70;;;;;;6170878;28;20170;-75
2021/08/12 00:11:52;;;;;;;5.95;3.47;;;27.50;52.80;;;;;;6186124;28;20093;-76
2021/08/12 00:14:53;;;;;;;12.80;4.15;;;27.50;52.80;;;;;;6183834;28;20045;-75
2021/08/12 00:17:54;;;;;;;5.85;3.55;;;27.50;53.00;;;;;;6183551;28;20185;-75
2021/08/12 00:20:55;;;;;;;5.95;3.20;;;27.50;53.00;;;;;;6201811;28;20026;-74
2021/08/12 00:23:57;;;;;;;6.63;3.83;;;27.50;53.00;;;;;;6185926;28;20180;-75
2021/08/12 00:26:58;;;;;;;7.70;3.75;;;27.40;53.00;;;;;;6183578;28;20034;-75
2021/08/12 00:30:00;;;;;;;9.77;4.28;;;27.40;53.10;;;;;;6167162;28;20096;-75
2021/08/12 00:33:01;;;;;;;10.57;4.05;;;27.40;53.30;;;;;;6198773;28;20030;-75
2021/08/12 00:36:02;;;;;;;8.10;3.72;;;27.40;53.40;;;;;;6200302;28;20045;-75
2021/08/12 00:39:05;;;;;;;6.90;4.38;;;27.40;53.60;;;;;;6162650;28;20129;-75
2021/08/12 00:42:08;;;;;;;8.32;3.70;;;27.30;53.90;;;;;;6135563;28;20051;-75
2021/08/12 00:45:10;;;;;;;9.55;4.43;;;27.30;54.10;;;;;;6151377;29;20031;-75
2021/08/12 00:48:12;;;;;;;6.43;4.32;;;27.30;54.30;;;;;;6148158;28;20405;-75
2021/08/12 00:51:14;;;;;;;5.88;4.05;;;27.30;54.40;;;;;;6151101;29;20389;-75
2021/08/12 00:54:15;;;;;;;7.72;3.78;;;27.30;54.70;;;;;;6110887;29;20058;-75
2021/08/12 00:57:19;;;;;;;7.60;4.05;;;27.30;55.00;;;;;;6135002;29;20035;-75
2021/08/12 01:00:21;;;;;;;6.85;4.20;;;27.20;54.90;;;;;;6151389;28;20043;-75
2021/08/12 01:03:22;;;;;;;8.68;4.05;;;27.20;55.00;;;;;;6149889;29;20372;-75
2021/08/12 01:07:00;;;;;;;11.23;5.10;;;27.20;55.10;;;;;;6135129;29;20106;-76
2021/08/12 01:10:31;;;;;;;6.53;4.10;;;27.20;55.10;;;;;;6150635;28;20039;-75
2021/08/12 01:13:36;;;;;;;7.82;4.05;;;27.20;55.10;;;;;;6024241;29;20053;-75
2021/08/12 01:16:50;;;;;;;7.22;4.18;;;27.20;55.00;;;;;;6056927;29;20041;-75
2021/08/12 01:20:21;;;;;;;4.72;3.70;;;27.20;54.90;;;;;;6024005;29;20069;-75
2021/08/12 01:23:25;;;;;;;5.57;3.72;;;27.20;54.90;;;;;;6036895;29;20044;-75
2021/08/12 01:26:31;;;;;;;9.68;4.28;;;27.20;54.70;;;;;;6055584;29;20108;-75
2021/08/12 01:30:06;;;;;;;10.20;4.72;;;27.10;54.50;;;;;;6039464;29;20108;-75
2021/08/12 01:33:33;;;;;;;6.03;3.28;;;27.10;54.50;;;;;;6038775;29;20100;-75
2021/08/12 01:36:37;;;;;;;8.57;3.65;;;27.00;54.50;;;;;;6039638;29;20120;-75
2021/08/12 01:39:40;;;;;;;9.77;3.85;;;27.00;54.60;;;;;;6056308;29;20045;-75
2021/08/12 01:42:43;;;;;;;4.50;3.13;;;26.90;54.80;;;;;;6040749;29;20071;-75
2021/08/12 01:45:51;;;;;;;5.78;3.00;;;26.90;55.00;;;;;;6055565;29;20033;-75
2021/08/12 01:48:55;;;;;;;8.02;3.55;;;26.90;55.30;;;;;;6049221;29;20037;-75
2021/08/12 01:51:56;;;;;;;8.65;3.70;;;26.80;55.50;;;;;;6151461;28;20472;-75
2021/08/12 01:54:59;;;;;;;6.50;3.67;;;26.70;55.70;;;;;;6151391;28;20170;-75
2021/08/12 01:58:01;;;;;;;8.55;3.72;;;26.60;55.90;;;;;;6135389;28;20042;-75
2021/08/12 02:01:03;;;;;;;5.28;4.05;;;26.50;56.00;;;;;;6135258;28;20111;-75
2021/08/12 02:04:05;;;;;;;7.45;3.78;;;26.50;56.30;;;;;;6149476;28;20031;-75
2021/08/12 02:07:10;;;;;;;5.82;4.13;;;26.40;56.50;;;;;;6152060;28;20524;-75
2021/08/12 02:10:13;;;;;;;10.32;3.95;;;26.40;56.60;;;;;;6152100;28;20361;-75
2021/08/12 02:13:15;;;;;;;9.75;3.63;;;26.30;56.70;;;;;;6136139;28;20134;-75
2021/08/12 02:16:17;;;;;;;8.50;4.15;;;26.30;56.80;;;;;;6151768;28;20047;-75
2021/08/12 02:19:18;;;;;;;8.70;3.65;;;26.20;56.80;;;;;;6151302;28;20469;-75
2021/08/12 02:22:24;;;;;;;6.32;3.92;;;26.20;56.80;;;;;;6151737;28;20050;-75
2021/08/12 02:25:45;;;;;;;7.25;4.03;;;26.20;56.90;;;;;;6151350;28;20173;-75
2021/08/12 02:28:48;;;;;;;10.88;4.20;;;26.10;56.90;;;;;;6151282;28;20043;-75
2021/08/12 02:31:52;;;;;;;12.80;3.83;;;26.10;57.00;;;;;;6134149;28;20046;-75
2021/08/12 02:34:56;;;;;;;7.78;3.63;;;26.10;57.20;;;;;;6135559;28;20046;-75
2021/08/12 02:37:58;;;;;;;8.63;3.75;;;26.00;57.30;;;;;;6139252;28;20038;-75
2021/08/12 02:41:00;;;;;;;8.35;3.75;;;25.90;57.30;;;;;;6143278;28;20034;-75
2021/08/12 02:44:03;;;;;;;9.52;4.00;;;25.90;57.50;;;;;;6158534;28;20409;-75
2021/08/12 02:47:05;;;;;;;9.07;4.15;;;25.90;57.60;;;;;;6135485;28;20109;-75
2021/08/12 02:50:09;;;;;;;5.30;3.65;;;25.80;57.50;;;;;;6139205;28;20050;-75
2021/08/12 02:53:10;;;;;;;6.50;3.63;;;25.80;57.40;;;;;;6158537;28;20039;-75
2021/08/12 02:56:13;;;;;;;9.68;3.78;;;25.80;57.40;;;;;;6158192;28;20039;-75
2021/08/12 02:59:17;;;;;;;6.95;3.95;;;25.70;57.30;;;;;;6142891;28;20042;-75
2021/08/12 03:02:22;;;;;;;5.60;3.90;;;25.70;57.50;;;;;;6141629;28;20073;-75
2021/08/12 03:05:25;;;;;;;7.45;3.92;;;25.70;57.60;;;;;;6141772;28;20135;-75
2021/08/12 03:08:29;;;;;;;13.50;3.85;;;25.60;57.70;;;;;;6173466;28;20368;-75
2021/08/12 03:11:31;;;;;;;7.53;3.97;;;25.60;57.80;;;;;;6175728;28;20334;-75
2021/08/12 03:14:36;;;;;;;5.68;3.72;;;25.60;57.90;;;;;;6158784;28;20475;-74
2021/08/12 03:17:38;;;;;;;11.07;4.25;;;25.50;58.00;;;;;;6170093;28;20031;-75
2021/08/12 03:20:42;;;;;;;6.40;3.63;;;25.40;58.00;;;;;;6159515;28;20126;-75
2021/08/12 03:23:44;;;;;;;14.25;3.80;;;25.40;58.10;;;;;;6175474;28;20050;-75
2021/08/12 03:26:53;;;;;;;9.38;3.80;;;25.40;58.10;;;;;;6151594;28;20031;-75
2021/08/12 03:29:56;;;;;;;10.25;4.00;;;25.40;58.20;;;;;;6151260;28;20334;-75
2021/08/12 03:32:57;;;;;;;13.95;3.95;;;25.40;58.20;;;;;;6132309;28;20034;-75
2021/08/12 03:35:59;;;;;;;5.85;3.78;;;25.40;58.10;;;;;;6150620;28;20031;-75
2021/08/12 03:39:00;;;;;;;4.78;3.80;;;25.40;58.10;;;;;;6164158;28;20178;-75
2021/08/12 03:42:01;;;;;;;9.43;3.65;;;25.40;58.10;;;;;;6149594;28;20181;-75
2021/08/12 03:45:03;;;;;;;11.65;3.80;;;25.40;58.10;;;;;;6142654;28;20030;-75
2021/08/12 03:48:04;;;;;;;16.10;4.75;;;25.40;58.20;;;;;;6142702;28;20050;-75
2021/08/12 03:51:05;;;;;;;5.15;3.55;;;25.30;58.20;;;;;;6165349;28;20097;-75
2021/08/12 03:54:06;;;;;;;6.40;3.60;;;25.30;58.30;;;;;;6158700;28;20110;-75
2021/08/12 03:57:07;;;;;;;10.63;4.10;;;25.30;58.30;;;;;;6142444;28;20035;-75
2021/08/12 04:00:13;;;;;;;14.05;3.88;;;25.20;58.30;;;;;;6142801;28;20341;-75
2021/08/12 04:03:14;;;;;;;5.10;3.42;;;25.20;58.90;;;;;;6173957;28;20464;-75
2021/08/12 04:06:15;;;;;;;9.45;4.18;;;25.20;58.40;;;;;;6167316;28;20031;-75
2021/08/12 04:09:16;;;;;;;7.57;4.07;;;25.20;58.40;;;;;;6158369;28;20413;-75
2021/08/12 04:12:17;;;;;;;4.55;3.72;;;25.20;58.40;;;;;;6167124;28;20359;-75
2021/08/12 04:15:18;;;;;;;6.72;3.65;;;25.20;58.40;;;;;;6174409;28;20030;-75
2021/08/12 04:18:20;;;;;;;9.93;4.75;;;25.20;58.40;;;;;;6158301;28;20387;-75
2021/08/12 04:21:21;;;;;;;5.43;3.55;;;25.20;58.60;;;;;;6175597;28;20097;-75
2021/08/12 04:24:22;;;;;;;7.80;4.30;;;25.10;58.70;;;;;;6173866;28;20475;-75
2021/08/12 04:27:24;;;;;;;10.57;4.15;;;25.00;58.80;;;;;;6142441;28;20097;-75
2021/08/12 04:30:25;;;;;;;6.82;4.07;;;25.00;59.00;;;;;;6142076;28;20042;-75
2021/08/12 04:33:26;;;;;;;6.47;3.40;;;24.90;59.10;;;;;;6172967;28;20046;-75
2021/08/12 04:36:27;;;;;;;9.25;4.15;;;24.80;59.10;;;;;;6157699;28;20062;-76
2021/08/12 04:39:28;;;;;;;6.07;3.70;;;24.80;59.10;;;;;;6156675;28;20047;-75
2021/08/12 04:42:29;;;;;;;14.60;4.30;;;24.80;59.10;;;;;;6168957;28;20074;-74
2021/08/12 04:45:30;;;;;;;6.15;4.28;;;24.90;59.00;;;;;;6160920;28;20054;-75
2021/08/12 04:48:32;;;;;;;8.02;3.92;;;24.90;59.00;;;;;;6144879;28;20039;-75
2021/08/12 04:51:33;;;;;;;8.77;4.10;;;24.90;59.10;;;;;;6156617;28;20476;-75
2021/08/12 04:54:34;;;;;;;8.25;3.85;;;24.90;59.20;;;;;;6139742;28;20035;-74
2021/08/12 04:57:37;;;;;;;7.20;4.00;;;24.90;59.30;;;;;;6156354;28;20035;-75
2021/08/12 05:00:39;;;;;;;9.23;4.43;;;24.80;59.40;;;;;;6155227;28;20046;-74
2021/08/12 05:03:40;;;;;;;9.73;4.38;;;24.80;59.50;;;;;;6153372;28;20039;-75
2021/08/12 05:06:41;;;;;;;6.63;4.22;;;24.80;59.50;;;;;;6138537;28;20051;-75
2021/08/12 05:09:42;;;;;;;8.40;4.10;;;24.90;59.50;;;;;;6154859;28;20127;-75
2021/08/12 05:12:43;;;;;;;12.52;4.70;;;24.90;59.50;;;;;;6132495;28;20106;-75
2021/08/12 05:15:45;;;;;;;6.45;4.05;;;24.90;59.50;;;;;;6155491;28;20043;-75
2021/08/12 05:18:46;;;;;;;13.15;4.68;;;24.90;59.40;;;;;;6138497;28;20043;-75
2021/08/12 05:21:47;;;;;;;7.18;4.00;;;25.00;59.40;;;;;;6154073;28;20091;-75
2021/08/12 05:24:49;;;;;;;9.95;4.47;;;25.00;59.30;;;;;;6154105;28;20413;-75
2021/08/12 05:27:50;;;;;;;7.47;4.25;;;24.90;59.20;;;;;;6153948;28;20047;-75
2021/08/12 05:30:51;;;;;;;6.00;4.13;;;25.00;59.20;;;;;;6137388;28;20118;-75
2021/08/12 05:33:52;;;;;;;10.10;4.63;;;24.90;59.20;;;;;;6153422;28;20043;-74
2021/08/12 05:36:53;;;;;;;8.73;4.70;;;24.90;59.30;;;;;;6153904;28;20059;-75
2021/08/12 05:39:54;;;;;;;11.65;5.05;;;24.80;59.30;;;;;;6137604;28;20101;-75
2021/08/12 05:42:57;;;;;;;11.45;4.00;;;24.90;59.30;;;;;;6153820;28;20480;-75
2021/08/12 05:45:58;;;;;;;6.65;3.90;;;24.90;59.30;;;;;;6153527;28;20412;-75
2021/08/12 05:48:59;;;;;;;7.15;3.92;;;24.90;59.20;;;;;;6154802;28;20051;-75
2021/08/12 05:52:01;;;;;;;12.93;3.70;;;24.90;59.10;;;;;;6153622;28;20027;-75
2021/08/12 05:55:02;;;;;;;9.43;4.40;;;25.00;59.10;;;;;;6153024;28;20164;-75
2021/08/12 05:58:03;;;;;;;7.00;3.72;;;25.00;58.80;;;;;;6153431;28;20516;-75
2021/08/12 06:01:09;;;;;;;12.85;4.35;;;25.00;58.60;;;;;;6135429;28;20041;-75
2021/08/12 06:04:10;;;;;;;6.97;3.90;;;25.10;58.60;;;;;;6160589;28;20527;-75
2021/08/12 06:07:14;;;;;;;10.90;4.60;;;24.90;58.40;;;;;;6153113;28;20083;-75
2021/08/12 06:10:15;;;;;;;11.25;3.85;;;25.20;58.40;;;;;;6137242;28;20035;-75
2021/08/12 06:13:18;;;;;;;9.60;3.88;;;25.20;58.30;;;;;;6152724;28;20059;-75
2021/08/12 06:16:20;;;;;;;8.55;4.20;;;25.20;58.30;;;;;;6152991;28;20051;-75
2021/08/12 06:19:21;;;;;;;10.23;4.03;;;25.30;58.20;;;;;;6152792;28;20079;-75
2021/08/12 06:22:22;;;;;;;6.95;4.13;;;25.30;58.20;;;;;;6152790;28;20051;-75
2021/08/12 06:25:23;;;;;;;16.92;4.40;;;25.30;58.20;;;;;;6152752;28;20042;-75
2021/08/12 06:28:25;;;;;;;13.40;3.78;;;25.30;58.30;;;;;;6152609;28;20506;-76
2021/08/12 06:31:27;;;;;;;5.63;3.55;;;25.40;58.10;;;;;;6152450;28;20035;-75
2021/08/12 06:34:30;;;;;;;16.58;3.95;;;25.40;58.10;;;;;;6136223;28;20409;-75
2021/08/12 06:37:39;;;;;;;12.07;4.88;;;25.40;58.10;;;;;;6153118;28;20031;-75
2021/08/12 06:40:42;;;;;;;7.47;4.00;;;25.50;58.00;;;;;;6183722;28;20125;-75
2021/08/12 06:43:43;;;;;;;7.70;3.78;;;25.60;57.80;;;;;;6180608;28;20037;-75
2021/08/12 06:46:44;;;;;;;8.00;4.03;;;25.70;57.70;;;;;;6181632;28;20038;-75
2021/08/12 06:49:47;;;;;;;12.07;4.47;;;25.80;57.50;;;;;;6168103;28;20451;-75
2021/08/12 06:52:48;;;;;;;12.43;3.42;;;25.90;57.20;;;;;;6200589;28;20455;-75
2021/08/12 06:55:50;;;;;;;14.40;3.90;;;26.00;56.50;;;;;;6183578;28;20375;-75
2021/08/12 06:58:51;;;;;;;11.25;3.88;;;26.10;56.00;;;;;;6167538;28;20109;-75
2021/08/12 07:01:53;;;;;;;9.05;3.95;;;26.20;55.70;;;;;;6165243;28;20026;-75
2021/08/12 07:04:54;;;;;;;8.23;3.55;;;26.30;55.50;;;;;;6183861;28;20030;-75
2021/08/12 07:07:55;;;;;;;5.85;3.55;;;26.40;55.00;;;;;;6183751;28;20023;-75
2021/08/12 07:10:57;;;;;;;8.20;3.92;;;26.50;54.10;;;;;;6167458;28;20080;-75
2021/08/12 07:13:59;;;;;;;10.95;4.15;;;26.60;53.30;;;;;;6200395;28;20062;-75
2021/08/12 07:17:00;;;;;;;5.65;2.95;;;26.70;52.90;;;;;;6200340;28;20045;-75
2021/08/12 07:20:03;;;;;;;6.78;3.47;;;26.80;52.70;;;;;;6183147;28;20104;-74
2021/08/12 07:23:04;;;;;;;9.02;3.55;;;26.90;52.80;;;;;;6182942;28;20034;-75
2021/08/12 07:26:06;;;;;;;7.80;3.97;;;26.90;52.50;;;;;;6167116;28;20030;-75
2021/08/12 07:29:07;;;;;;;5.53;3.30;;;27.10;52.20;;;;;;6182833;28;20053;-75
2021/08/12 07:32:09;;;;;;;5.13;3.35;;;27.10;52.00;;;;;;6198961;28;20037;-75
2021/08/12 07:35:21;;;;;;;6.28;3.78;;;27.30;51.80;;;;;;6182204;28;20034;-75
2021/08/12 07:38:22;;;;;;;8.43;3.45;;;27.50;51.40;;;;;;6166601;28;20042;-75
2021/08/12 07:41:23;;;;;;;7.75;3.53;;;27.60;50.90;;;;;;6166195;28;20031;-75
2021/08/12 07:44:24;;;;;;;9.98;4.55;;;27.80;50.70;;;;;;6166366;28;20031;-75
2021/08/12 07:47:25;;;;;;;8.90;3.80;;;27.90;50.40;;;;;;6182250;28;20034;-75
2021/08/12 07:50:27;;;;;;;8.35;3.20;;;28.00;49.90;;;;;;6166104;28;20042;-75
2021/08/12 07:53:28;;;;;;;5.22;3.42;;;28.10;49.20;;;;;;6182466;28;20460;-75
2021/08/12 07:56:29;;;;;;;6.57;3.38;;;28.10;49.00;;;;;;6165614;28;20050;-75
2021/08/12 07:59:31;;;;;;;4.85;3.20;;;28.20;48.70;;;;;;6165958;28;20578;-75
2021/08/12 08:02:45;;;;;;;4.65;3.22;;;28.40;48.20;;;;;;6164683;28;20057;-75
2021/08/12 08:05:46;;;;;;;4.78;3.25;;;28.50;47.20;;;;;;6182096;28;20068;-75
2021/08/12 08:08:47;;;;;;;12.25;3.83;;;28.60;46.80;;;;;;6199338;28;20035;-75
2021/08/12 08:11:49;;;;;;;11.25;3.83;;;28.70;46.80;;;;;;6199109;28;20468;-75
2021/08/12 08:14:50;;;;;;;6.28;3.53;;;28.80;46.70;;;;;;6198599;28;20030;-75
2021/08/12 08:17:52;;;;;;;8.25;3.60;;;29.10;46.30;;;;;;6196939;28;20041;-75
2021/08/12 08:20:53;;;;;;;5.78;3.38;;;29.40;45.40;;;;;;6198600;28;20027;-76
2021/08/12 08:23:55;;;;;;;3.90;2.75;;;29.60;44.50;;;;;;6181508;28;20065;-75
2021/08/12 08:26:56;;;;;;;8.45;3.58;;;29.80;44.30;;;;;;6199015;28;20034;-75
2021/08/12 08:29:57;;;;;;;5.57;3.38;;;30.00;44.60;;;;;;6198361;28;20042;-75
2021/08/12 08:32:58;;;;;;;8.43;3.67;;;30.10;43.40;;;;;;6179979;28;20103;-75
2021/08/12 08:35:59;;;;;;;6.85;3.72;;;30.30;43.40;;;;;;6180417;28;20440;-75
2021/08/12 08:39:00;;;;;;;11.27;3.45;;;30.50;42.30;;;;;;6165086;28;20049;-75
2021/08/12 08:42:01;;;;;;;6.40;3.47;;;30.60;42.00;;;;;;6180924;28;20038;-75
2021/08/12 08:45:03;;;;;;;11.07;3.83;;;30.60;42.00;;;;;;6144286;28;20105;-75
2021/08/12 08:48:10;;;;;;;8.10;3.28;;;30.60;42.00;;;;;;6157350;28;20035;-76
2021/08/12 08:51:13;;;;;;;6.17;3.60;;;30.60;42.00;;;;;;6157255;28;20031;-76
2021/08/12 08:54:16;;;;;;;15.00;3.50;;;30.70;41.80;;;;;;6174194;28;20350;-76
2021/08/12 08:57:17;;;;;;;12.80;3.15;;;30.70;41.60;;;;;;6156887;28;20122;-76
2021/08/12 09:00:19;;;;;;;11.77;8.00;;;30.80;40.90;;;;;;6173768;28;20046;-76
2021/08/12 09:03:20;;;;;;;10.18;6.20;;;30.80;40.80;;;;;;6170647;28;20030;-76
2021/08/12 09:06:21;;;;;;;11.00;5.15;;;30.80;41.10;;;;;;6181137;28;20507;-77
2021/08/12 09:09:22;;;;;;;6.15;3.42;;;31.00;41.30;;;;;;6180956;28;20092;-76
2021/08/12 09:12:23;;;;;;;6.07;3.67;;;31.00;41.70;;;;;;6163922;28;20042;-75
2021/08/12 09:15:24;;;;;;;8.52;3.65;;;31.10;40.80;;;;;;6164836;28;20105;-76
2021/08/12 09:18:27;;;;;;;5.57;2.95;;;31.20;40.40;;;;;;6180693;28;20045;-76
2021/08/12 09:21:31;;;;;;;5.75;3.42;;;31.20;39.90;;;;;;6181616;28;20105;-76
2021/08/12 09:24:51;;;;;;;17.02;3.40;;;31.30;39.80;;;;;;6198463;28;20249;-75
2021/08/12 09:28:16;;;;;;;5.45;3.10;;;31.40;39.70;;;;;;6196805;28;20117;-76
2021/08/12 09:31:16;;;;;;;7.13;3.58;;;31.40;39.70;;;;;;6182236;28;20034;-75
2021/08/12 09:34:19;;;;;;;14.68;4.18;;;31.40;39.60;;;;;;6198737;28;20125;-76
2021/08/12 09:37:31;;;;;;;20.85;11.57;;;31.40;40.10;;;;;;6183354;28;20039;-74
2021/08/12 09:40:32;;;;;;;8.13;4.22;;;31.40;40.40;;;;;;6199319;28;20039;-77
2021/08/12 09:43:36;;;;;;;4.60;3.10;;;31.50;40.60;;;;;;6181666;28;22126;-76
2021/08/12 09:46:38;;;;;;;11.27;5.03;;;31.50;40.70;;;;;;6181836;28;20050;-75
2021/08/12 09:49:43;;;;;;;9.52;4.50;;;31.60;40.70;;;;;;6180990;28;20061;-75
2021/08/12 09:52:48;;;;;;;10.93;5.40;;;31.80;40.50;;;;;;6198382;28;20077;-74
2021/08/12 09:55:50;;;;;;;10.02;4.53;;;31.80;40.30;;;;;;6198459;28;20053;-74
2021/08/12 09:58:52;;;;;;;6.45;4.15;;;31.80;40.10;;;;;;6198451;28;20109;-77
2021/08/12 10:02:12;;;;;;;8.73;3.67;;;31.90;39.30;;;;;;6179814;28;20073;-77
2021/08/12 10:05:13;;;;;;;6.22;3.95;;;31.80;37.90;;;;;;6196278;28;20042;-76
2021/08/12 10:08:34;;;;;;;8.43;3.50;;;31.90;38.00;;;;;;6179310;28;20073;-76
2021/08/12 10:11:40;;;;;;;5.53;3.53;;;31.90;37.10;;;;;;6179525;28;20061;-76
2021/08/12 10:14:41;;;;;;;5.07;2.88;;;32.20;36.80;;;;;;6179342;28;20121;-75
2021/08/12 10:17:43;;;;;;;36.42;13.68;;;32.30;36.20;;;;;;6179003;28;20026;-76
2021/08/12 10:20:45;;;;;;;22.42;12.45;;;32.30;35.70;;;;;;6196735;28;20034;-77
2021/08/12 10:23:53;;;;;;;17.58;7.88;;;32.50;35.90;;;;;;6180862;28;20041;-76
2021/08/12 10:26:56;;;;;;;10.63;5.35;;;32.60;36.60;;;;;;6196612;28;20034;-76
2021/08/12 10:29:58;;;;;;;11.13;6.63;;;32.70;35.80;;;;;;6197650;28;20088;-75
2021/08/12 10:33:01;;;;;;;21.15;11.40;;;32.90;35.70;;;;;;6179436;28;20455;-75
2021/08/12 10:36:02;;;;;;;8.35;4.72;;;32.90;35.00;;;;;;6193927;28;20043;-76
2021/08/12 10:39:05;;;;;;;6.95;3.70;;;32.90;34.50;;;;;;6196443;28;20137;-76
2021/08/12 10:42:07;;;;;;;9.25;4.03;;;33.00;34.50;;;;;;6196465;28;20130;-75
2021/08/12 10:45:10;;;;;;;9.82;4.55;;;33.00;34.50;;;;;;6179337;28;20041;-77
2021/08/12 10:48:20;;;;;;;9.23;3.92;;;33.20;34.00;;;;;;6179067;28;20035;-77
2021/08/12 10:51:21;;;;;;;10.90;3.75;;;33.30;33.70;;;;;;6196753;28;20062;-75
2021/08/12 10:54:22;;;;;;;4.88;3.25;;;33.40;33.80;;;;;;6180252;28;20065;-75
2021/08/12 10:57:24;;;;;;;8.75;3.10;;;33.50;33.90;;;;;;6180207;28;20057;-75
2021/08/12 11:00:46;;;;;;;7.95;3.22;;;33.90;33.40;;;;;;6197622;28;20525;-76
2021/08/12 11:03:47;;;;;;;7.60;2.72;;;34.50;33.00;;;;;;6178368;28;20150;-76
2021/08/12 11:06:49;;;;;;;6.90;3.67;;;35.30;32.20;;;;;;6179926;28;20044;-74
2021/08/12 11:09:57;;;;;;;4.45;2.78;;;35.90;31.50;;;;;;6163851;28;20367;-74
2021/08/12 11:13:01;;;;;;;4.80;3.00;;;36.30;31.00;;;;;;6164093;28;20050;-75
2021/08/12 11:16:03;;;;;;;4.78;3.47;;;36.80;30.50;;;;;;6164999;28;20034;-75
2021/08/12 11:19:05;;;;;;;4.22;3.55;;;37.20;30.00;;;;;;6198119;28;20054;-75
2021/08/12 11:22:27;;;;;;;7.82;3.80;;;37.60;29.80;;;;;;6180836;28;20034;-75
2021/08/12 11:25:57;;;;;;;7.20;3.55;;;38.20;29.50;;;;;;6198202;28;20066;-76
2021/08/12 11:28:58;;;;;;;8.30;3.42;;;38.70;29.20;;;;;;6178572;28;20547;-75
2021/08/12 11:32:05;;;;;;;6.28;3.55;;;39.10;29.10;;;;;;6161576;28;20059;-75
2021/08/12 11:35:06;;;;;;;11.05;3.13;;;39.00;29.20;;;;;;6170207;28;20042;-75
2021/08/12 11:38:08;;;;;;;8.45;3.22;;;39.10;29.40;;;;;;6195304;28;20504;-75
2021/08/12 11:41:10;;;;;;;6.63;3.65;;;39.10;29.60;;;;;;6196906;28;20388;-76
2021/08/12 11:44:15;;;;;;;12.90;5.30;;;39.00;29.80;;;;;;6196357;28;20063;-76
2021/08/12 11:47:17;;;;;;;6.30;3.90;;;38.60;30.00;;;;;;6196429;28;20125;-76
2021/08/12 11:50:18;;;;;;;9.63;3.70;;;38.30;30.40;;;;;;6179641;28;20053;-75
2021/08/12 11:53:36;;;;;;;5.72;2.78;;;38.10;30.30;;;;;;6177802;28;20049;-75
2021/08/12 11:56:38;;;;;;;;;;;38.00;30.40;;;;;;6177189;28;20038;-75
2021/08/12 11:59:39;;;;;;;9.88;3.65;;;37.80;31.30;;;;;;6176299;28;19960;-75
2021/08/12 12:02:50;;;;;;;7.97;3.70;;;37.60;31.00;;;;;;6176494;28;20034;-74
2021/08/12 12:05:52;;;;;;;6.60;3.28;;;37.90;30.90;;;;;;6161691;28;20478;-75
2021/08/12 12:08:53;;;;;;;5.38;3.85;;;38.50;30.40;;;;;;6194992;28;20030;-75
2021/08/12 12:12:02;;;;;;;8.57;3.13;;;39.10;29.80;;;;;;6195081;28;20026;-75
2021/08/12 12:15:03;;;;;;;7.68;3.22;;;39.50;29.20;;;;;;6177532;28;20030;-75
2021/08/12 12:18:05;;;;;;;12.88;3.80;;;40.00;28.70;;;;;;6176754;28;20105;-75
2021/08/12 12:21:15;;;;;;;11.88;3.60;;;40.30;28.10;;;;;;6162119;28;20027;-75
2021/08/12 12:24:16;;;;;;;7.82;3.25;;;40.40;28.00;;;;;;6194088;28;20081;-74
2021/08/12 12:27:23;;;;;;;13.63;4.13;;;40.60;27.80;;;;;;6177797;28;20054;-74
2021/08/12 12:30:25;;;;;;;14.13;5.13;;;40.80;27.50;;;;;;6194879;28;20348;-75
2021/08/12 12:33:27;;;;;;;12.27;5.32;;;40.90;27.30;;;;;;6176476;28;20049;-76
2021/08/12 12:36:32;;;;;;;6.47;2.67;;;41.10;26.90;;;;;;6178130;28;20129;-76
2021/08/12 12:39:34;;;;;;;7.40;2.42;;;41.20;26.90;;;;;;6174235;28;20042;-76
2021/08/12 12:42:36;;;;;;;8.63;3.22;;;41.00;27.10;;;;;;6161512;28;20042;-75
2021/08/12 12:45:50;;;;;;;10.43;3.05;;;41.00;27.10;;;;;;6161331;28;20038;-75
2021/08/12 12:48:51;;;;;;;12.05;3.40;;;41.30;26.90;;;;;;6178048;28;20095;-76
2021/08/12 12:52:03;;;;;;;6.35;3.03;;;41.80;26.40;;;;;;6179205;28;20026;-75
2021/08/12 12:55:18;;;;;;;11.45;3.03;;;42.10;26.00;;;;;;6196085;28;20041;-75
2021/08/12 12:58:22;;;;;;;8.50;3.08;;;42.00;25.90;;;;;;6195626;28;20041;-75
2021/08/12 13:01:25;;;;;;;7.70;3.03;;;42.10;25.90;;;;;;6178860;28;20038;-75
2021/08/12 13:04:26;;;;;;;12.32;3.10;;;42.50;25.70;;;;;;6180174;28;20054;-76
2021/08/12 13:07:27;;;;;;;8.13;2.80;;;42.90;25.20;;;;;;6201354;28;20034;-74
2021/08/12 13:10:30;;;;;;;12.68;2.97;;;43.20;24.90;;;;;;6200970;28;20062;-77
2021/08/12 13:13:31;;;;;;;8.00;2.35;;;43.40;24.80;;;;;;6173765;28;20126;-75
2021/08/12 13:16:58;;;;;;;8.25;4.65;;;43.90;24.40;;;;;;6183806;28;20041;-76
2021/08/12 13:20:11;;;;;;;18.75;9.95;;;44.60;23.70;;;;;;6178423;28;20046;-75
2021/08/12 13:23:13;;;;;;;7.55;2.95;;;45.40;22.90;;;;;;6199459;28;20100;-76
2021/08/12 13:26:26;;;;;;;10.15;3.10;;;46.20;22.30;;;;;;6182990;28;20049;-76
2021/08/12 13:29:29;;;;;;;3.90;2.67;;;47.10;21.60;;;;;;6199870;28;20064;-76
2021/08/12 13:32:32;;;;;;;9.00;2.88;;;47.80;21.10;;;;;;6182416;28;20053;-76
2021/08/12 13:35:33;;;;;;;8.20;2.92;;;48.40;20.70;;;;;;6201908;28;20046;-75
2021/08/12 13:38:35;;;;;;;6.28;2.83;;;49.00;20.30;;;;;;6168554;28;20057;-76
2021/08/12 13:41:45;;;;;;;7.53;2.65;;;49.50;20.00;;;;;;6202274;28;20047;-77
2021/08/12 13:44:46;;;;;;;6.32;2.75;;;49.80;19.50;;;;;;6203265;28;20082;-76
2021/08/12 13:47:47;;;;;;;3.40;2.60;;;50.00;19.30;;;;;;6204398;28;20507;-76
2021/08/12 13:50:48;;;;;;;6.65;3.15;;;50.20;19.30;;;;;;6203673;28;20038;-76
2021/08/12 13:53:49;;;;;;;7.75;3.10;;;50.40;19.20;;;;;;6204328;28;20060;-76
2021/08/12 13:56:51;;;;;;;11.30;3.10;;;50.40;19.00;;;;;;6169053;28;20042;-76
2021/08/12 13:59:52;;;;;;;12.82;3.20;;;50.70;19.00;;;;;;6185851;28;20049;-76
2021/08/12 14:02:53;;;;;;;4.63;2.80;;;50.80;18.80;;;;;;6204439;28;20256;-76
2021/08/12 14:05:54;;;;;;;6.00;2.72;;;51.10;18.70;;;;;;6182976;28;20058;-76
2021/08/12 14:08:55;;;;;;;4.85;2.45;;;51.20;18.60;;;;;;6182152;28;20034;-76
2021/08/12 14:11:57;;;;;;;7.28;3.13;;;51.30;18.40;;;;;;6198947;28;20085;-76
2021/08/12 14:14:57;;;;;;;3.65;2.45;;;51.40;18.40;;;;;;6198524;28;20031;-77
2021/08/12 14:17:59;;;;;;;5.35;2.70;;;51.50;18.30;;;;;;6179803;28;20077;-76
2021/08/12 14:21:01;;;;;;;5.78;2.55;;;51.60;18.20;;;;;;6181257;28;20030;-76
2021/08/12 14:24:02;;;;;;;6.10;3.08;;;51.60;18.10;;;;;;6185882;28;20054;-76
2021/08/12 14:27:05;;;;;;;4.10;2.15;;;51.30;18.00;;;;;;6181974;28;20109;-75
2021/08/12 14:30:06;;;;;;;5.13;2.72;;;50.90;18.20;;;;;;6198940;28;20038;-75
2021/08/12 14:33:07;;;;;;;3.80;2.50;;;49.90;18.90;;;;;;6180638;28;20031;-75
2021/08/12 14:36:09;;;;;;;5.30;2.88;;;48.60;19.80;;;;;;6195345;28;20081;-75
2021/08/12 14:39:13;;;;;;;8.90;3.00;;;47.30;20.60;;;;;;6165314;28;20104;-76
2021/08/12 14:42:15;;;;;;;7.78;3.10;;;46.00;21.30;;;;;;6197448;28;20042;-75
2021/08/12 14:45:16;;;;;;;9.40;2.90;;;45.00;22.00;;;;;;6165136;28;20057;-75
2021/08/12 14:48:19;;;;;;;7.38;2.72;;;44.20;22.50;;;;;;6198464;28;20140;-75
2021/08/12 14:51:21;;;;;;;9.00;2.60;;;43.60;22.80;;;;;;6181040;28;20042;-76
2021/08/12 14:54:22;;;;;;;4.05;2.50;;;42.90;23.40;;;;;;6181260;28;20049;-75
2021/08/12 14:57:23;;;;;;;5.13;3.50;;;42.20;24.20;;;;;;6163837;28;20050;-75
2021/08/12 15:00:24;;;;;;;10.80;3.17;;;41.60;24.90;;;;;;6180973;28;20525;-75
2021/08/12 15:03:25;;;;;;;5.82;2.78;;;41.20;25.40;;;;;;6180133;28;20088;-75
2021/08/12 15:06:26;;;;;;;7.00;3.22;;;40.90;25.80;;;;;;6180899;28;20467;-75
2021/08/12 15:09:27;;;;;;;4.45;2.60;;;40.70;26.00;;;;;;6180443;28;20042;-75
2021/08/12 15:12:28;;;;;;;3.92;2.35;;;40.40;26.10;;;;;;6197676;28;20121;-75
2021/08/12 15:15:30;;;;;;;9.60;2.65;;;40.20;26.20;;;;;;6180484;28;20049;-75
2021/08/12 15:18:31;;;;;;;9.50;2.50;;;39.90;26.30;;;;;;6198216;28;20041;-75
2021/08/12 15:21:32;;;;;;;4.78;2.58;;;39.70;26.50;;;;;;6190492;28;20108;-76
2021/08/12 15:24:34;;;;;;;6.32;2.78;;;39.40;26.80;;;;;;6163958;28;20122;-76
2021/08/12 15:27:35;;;;;;;9.60;2.75;;;39.20;27.20;;;;;;6197422;28;20038;-74
2021/08/12 15:30:36;;;;;;;6.20;2.85;;;38.80;27.50;;;;;;6197360;28;20042;-75
2021/08/12 15:33:37;;;;;;;5.95;2.97;;;38.60;27.90;;;;;;6180143;28;20084;-75
2021/08/12 15:36:38;;;;;;;7.50;3.15;;;38.30;28.20;;;;;;6180207;28;20441;-75
2021/08/12 15:39:39;;;;;;;5.55;3.10;;;38.10;28.50;;;;;;6139101;28;20043;-75
2021/08/12 15:42:40;;;;;;;12.85;3.40;;;37.90;29.30;;;;;;6147536;28;20408;-74
2021/08/12 15:45:41;;;;;;;5.43;3.05;;;37.60;29.80;;;;;;6132187;28;20039;-74
2021/08/12 15:48:43;;;;;;;9.50;4.35;;;37.40;30.60;;;;;;6149752;28;20382;-75
2021/08/12 15:51:44;;;;;;;8.02;3.50;;;37.20;31.40;;;;;;6149575;28;20043;-75
2021/08/12 15:54:45;;;;;;;7.45;3.42;;;36.90;32.00;;;;;;6147690;28;20035;-75